Time;durP1;ratioP1;P1;durP2;ratioP2;P2;SDS_P1;SDS_P2;PMS_P1;PMS_P2;Temp;Humidity;BMP_temperature;BMP_pressure;BME280_temperature;BME280_humidity;BME280_pressure;Samples;Min_cycle;Max_cycle;Signal;HPM_P1;HPM_P2
2022/06/24 00:00:40;;;;;;;42.10;36.78;;;21.00;99.90;;;;;;5055023;28;20025;-57
2022/06/24 00:03:06;;;;;;;49.30;40.70;;;20.90;99.90;;;;;;5055022;28;20048;-58
2022/06/24 00:05:34;;;;;;;52.72;45.90;;;20.70;99.90;;;;;;5055224;28;20083;-58
2022/06/24 00:08:00;;;;;;;54.90;47.05;;;20.70;99.90;;;;;;5054969;28;20040;-57
2022/06/24 00:10:34;;;;;;;56.60;47.35;;;20.70;99.90;;;;;;5054812;28;20104;-58
2022/06/24 00:13:01;;;;;;;59.08;48.63;;;20.70;99.90;;;;;;5055040;28;20033;-57
2022/06/24 00:15:32;;;;;;;60.55;49.83;;;20.70;99.90;;;;;;5055392;28;20478;-57
2022/06/24 00:18:10;;;;;;;60.72;48.10;;;20.60;99.90;;;;;;5054464;28;20036;-57
2022/06/24 00:20:42;;;;;;;63.83;49.20;;;20.70;99.90;;;;;;5054843;28;20040;-57
2022/06/24 00:23:08;;;;;;;58.20;48.43;;;20.70;99.90;;;;;;5055109;28;20025;-56
2022/06/24 00:25:37;;;;;;;64.10;52.13;;;20.60;99.90;;;;;;5055311;28;20260;-56
2022/06/24 00:28:07;;;;;;;67.55;51.83;;;20.80;99.90;;;;;;5053224;28;20603;-57
2022/06/24 00:30:37;;;;;;;78.05;57.67;;;20.80;99.90;;;;;;5054176;28;20025;-57
2022/06/24 00:33:11;;;;;;;67.40;54.83;;;20.90;99.90;;;;;;5054298;28;20024;-61
2022/06/24 00:35:42;;;;;;;68.25;51.40;;;20.90;99.90;;;;;;5054462;28;20029;-61
2022/06/24 00:38:30;;;;;;;67.30;49.95;;;20.90;99.90;;;;;;5054312;28;20032;-62
2022/06/24 00:40:59;;;;;;;62.22;49.00;;;20.70;99.90;;;;;;5053144;28;20071;-62
2022/06/24 00:43:29;;;;;;;61.45;47.03;;;20.70;99.90;;;;;;5054235;28;20021;-60
2022/06/24 00:46:14;;;;;;;56.08;45.50;;;20.50;99.90;;;;;;5054286;28;20024;-61
2022/06/24 00:48:45;;;;;;;61.72;44.80;;;20.50;99.90;;;;;;5054945;28;20028;-62
2022/06/24 00:51:11;;;;;;;50.38;41.58;;;20.40;99.90;;;;;;5054243;28;20021;-62
2022/06/24 00:53:44;;;;;;;54.85;41.67;;;20.30;99.90;;;;;;5054008;28;20538;-62
2022/06/24 00:56:11;;;;;;;48.90;38.80;;;20.40;99.90;;;;;;5053636;28;20041;-62
2022/06/24 00:58:37;;;;;;;48.85;39.35;;;20.40;99.90;;;;;;5051869;28;20029;-63
2022/06/24 01:01:03;;;;;;;49.72;42.00;;;20.40;99.90;;;;;;5053762;28;20484;-62
2022/06/24 01:03:40;;;;;;;53.58;41.53;;;20.40;99.90;;;;;;5053723;28;20029;-61
2022/06/24 01:06:07;;;;;;;56.45;43.22;;;20.50;99.90;;;;;;5053444;28;20028;-62
2022/06/24 01:08:33;;;;;;;49.78;41.65;;;20.50;99.90;;;;;;5053097;28;20021;-62
2022/06/24 01:10:59;;;;;;;59.85;46.97;;;20.60;99.90;;;;;;5053238;28;20032;-62
2022/06/24 01:13:25;;;;;;;61.40;47.72;;;20.60;99.90;;;;;;5052251;28;20036;-61
2022/06/24 01:15:51;;;;;;;60.88;47.72;;;20.60;99.90;;;;;;5053340;28;20497;-61
2022/06/24 01:18:16;;;;;;;59.47;45.72;;;20.60;99.90;;;;;;5053043;28;20039;-61
2022/06/24 01:20:42;;;;;;;60.55;46.28;;;20.60;99.90;;;;;;5053033;28;20032;-61
2022/06/24 01:23:08;;;;;;;58.88;46.05;;;20.50;99.90;;;;;;5053430;28;20106;-61
2022/06/24 01:25:33;;;;;;;66.88;51.30;;;20.40;99.90;;;;;;5053607;28;20029;-59
2022/06/24 01:27:59;;;;;;;77.05;57.25;;;20.30;99.90;;;;;;5053062;28;20036;-59
2022/06/24 01:30:26;;;;;;;79.75;62.42;;;20.30;99.90;;;;;;5053326;28;20021;-59
2022/06/24 01:32:51;;;;;;;89.60;66.68;;;20.40;99.90;;;;;;5053313;28;20024;-59
2022/06/24 01:35:17;;;;;;;81.78;63.50;;;20.50;99.90;;;;;;5053256;28;20035;-58
2022/06/24 01:37:43;;;;;;;74.90;57.70;;;20.70;99.90;;;;;;5053126;28;20035;-58
2022/06/24 01:40:09;;;;;;;75.63;59.20;;;20.60;99.90;;;;;;5052911;28;20032;-58
2022/06/24 01:42:34;;;;;;;82.47;63.28;;;20.60;99.90;;;;;;5051861;28;20029;-58
2022/06/24 01:45:00;;;;;;;74.53;56.88;;;20.60;99.90;;;;;;5053208;28;20418;-58
2022/06/24 01:47:26;;;;;;;68.88;52.58;;;20.40;99.90;;;;;;5052943;28;20132;-59
2022/06/24 01:49:52;;;;;;;67.57;53.03;;;20.10;99.90;;;;;;5052840;28;20116;-58
2022/06/24 01:52:17;;;;;;;64.88;51.58;;;20.00;99.90;;;;;;5053028;28;20055;-58
2022/06/24 01:54:43;;;;;;;72.25;54.55;;;19.90;99.90;;;;;;5053026;28;20044;-58
2022/06/24 01:57:08;;;;;;;64.68;52.00;;;20.10;99.90;;;;;;5052712;28;20489;-58
2022/06/24 01:59:34;;;;;;;68.60;53.30;;;20.00;99.90;;;;;;5051239;28;20021;-58
2022/06/24 02:02:00;;;;;;;71.00;54.13;;;20.00;99.90;;;;;;5052659;28;20378;-57
2022/06/24 02:04:25;;;;;;;69.05;54.70;;;19.90;99.90;;;;;;5053086;28;20017;-57
2022/06/24 02:06:51;;;;;;;72.85;56.25;;;19.90;99.90;;;;;;5052669;28;20021;-58
2022/06/24 02:09:17;;;;;;;72.47;56.10;;;19.90;99.90;;;;;;5052381;28;20061;-58
2022/06/24 02:14:28;;;;;;;77.68;56.35;;;19.80;99.90;;;;;;5052498;28;20070;-57
2022/06/24 02:16:54;;;;;;;68.50;53.67;;;19.90;99.90;;;;;;5051021;28;20028;-57
2022/06/24 02:19:20;;;;;;;70.55;54.67;;;19.90;99.90;;;;;;5052329;28;20052;-58
2022/06/24 02:21:46;;;;;;;73.97;58.28;;;19.90;99.90;;;;;;5052257;28;20025;-58
2022/06/24 02:24:13;;;;;;;72.13;55.08;;;20.00;99.90;;;;;;5052021;28;20075;-57
2022/06/24 02:26:39;;;;;;;69.55;55.08;;;20.00;99.90;;;;;;5052480;28;20027;-57
2022/06/24 02:29:05;;;;;;;68.25;51.58;;;19.80;99.90;;;;;;5052207;28;20056;-57
2022/06/24 02:31:30;;;;;;;66.30;51.55;;;19.80;99.90;;;;;;5052022;28;20079;-57
2022/06/24 02:33:58;;;;;;;68.50;53.80;;;19.60;99.90;;;;;;5052143;28;20033;-57
2022/06/24 02:36:24;;;;;;;68.55;53.47;;;19.70;99.90;;;;;;5052167;28;20049;-58
2022/06/24 02:38:49;;;;;;;65.85;51.28;;;19.80;99.90;;;;;;5052143;28;20028;-58
2022/06/24 02:41:15;;;;;;;67.20;52.25;;;19.80;99.90;;;;;;5052392;28;20024;-58
2022/06/24 02:43:41;;;;;;;66.13;51.45;;;20.00;99.90;;;;;;5051769;28;20029;-58
2022/06/24 02:46:12;;;;;;;64.65;50.88;;;20.10;99.90;;;;;;5051969;28;20029;-59
2022/06/24 02:48:40;;;;;;;65.30;51.58;;;20.20;99.90;;;;;;5051891;28;20025;-57
2022/06/24 02:51:09;;;;;;;63.53;49.67;;;20.20;99.90;;;;;;5051916;28;20078;-58
2022/06/24 02:53:35;;;;;;;70.40;51.30;;;20.20;99.90;;;;;;5051632;28;20024;-58
2022/06/24 02:56:09;;;;;;;72.00;53.78;;;20.10;99.90;;;;;;5051987;28;20049;-63
2022/06/24 02:58:36;;;;;;;62.83;47.42;;;20.10;99.90;;;;;;5051571;28;20392;-63
2022/06/24 03:01:03;;;;;;;54.13;38.70;;;20.00;99.90;;;;;;5051851;28;20017;-63
2022/06/24 03:03:36;;;;;;;48.03;31.40;;;19.90;99.90;;;;;;5051665;28;20021;-62
2022/06/24 03:06:02;;;;;;;34.58;25.13;;;19.80;99.90;;;;;;5051847;28;20021;-63
2022/06/24 03:08:40;;;;;;;34.55;23.55;;;19.60;99.90;;;;;;5051671;28;20036;-63
2022/06/24 03:11:06;;;;;;;35.13;25.52;;;19.40;99.90;;;;;;5050407;28;20485;-64
2022/06/24 03:13:32;;;;;;;35.72;23.67;;;19.30;99.90;;;;;;5051863;28;20032;-64
2022/06/24 03:15:57;;;;;;;27.58;18.42;;;19.10;99.90;;;;;;5051723;28;20033;-63
2022/06/24 03:18:24;;;;;;;22.00;16.08;;;19.00;99.90;;;;;;5051377;28;20388;-62
2022/06/24 03:20:50;;;;;;;27.27;17.40;;;18.90;99.90;;;;;;5050192;28;20024;-61
2022/06/24 03:23:16;;;;;;;24.65;18.88;;;18.80;99.90;;;;;;5051527;28;20096;-60
2022/06/24 03:25:43;;;;;;;31.25;19.27;;;18.80;99.90;;;;;;5051722;28;20476;-60
2022/06/24 03:28:08;;;;;;;22.23;16.75;;;18.60;99.90;;;;;;5051559;28;20104;-60
2022/06/24 03:30:34;;;;;;;29.40;18.90;;;18.60;99.90;;;;;;5051275;28;20104;-60
2022/06/24 03:33:00;;;;;;;29.35;17.48;;;18.50;99.90;;;;;;5051124;28;20029;-62
2022/06/24 03:35:27;;;;;;;20.70;14.68;;;18.50;99.90;;;;;;5051247;28;20492;-61
2022/06/24 03:37:52;;;;;;;25.63;15.35;;;18.50;99.90;;;;;;5049794;28;20021;-60
2022/06/24 03:40:18;;;;;;;19.17;12.85;;;18.50;99.90;;;;;;5051627;28;20021;-61
2022/06/24 03:42:44;;;;;;;32.65;17.27;;;18.40;99.90;;;;;;5051156;28;20039;-61
2022/06/24 03:45:10;;;;;;;27.38;17.52;;;18.30;99.90;;;;;;5051177;28;20044;-61
2022/06/24 03:47:35;;;;;;;23.50;16.52;;;18.20;99.90;;;;;;5050010;28;20074;-60
2022/06/24 03:50:01;;;;;;;28.83;18.33;;;18.20;99.90;;;;;;5050759;28;20075;-61
2022/06/24 03:52:26;;;;;;;20.95;15.07;;;18.10;99.90;;;;;;5051489;28;20562;-62
2022/06/24 03:54:52;;;;;;;33.88;22.88;;;18.10;99.90;;;;;;5050676;28;20049;-61
2022/06/24 03:57:18;;;;;;;33.58;24.60;;;18.10;99.90;;;;;;5050721;28;20079;-61
2022/06/24 03:59:44;;;;;;;43.83;30.85;;;18.20;99.90;;;;;;5051205;28;20496;-61
2022/06/24 04:02:09;;;;;;;58.00;37.85;;;18.30;99.90;;;;;;5050697;28;20017;-61
2022/06/24 04:04:35;;;;;;;63.92;42.80;;;18.20;99.90;;;;;;5051386;28;20484;-60
2022/06/24 04:07:01;;;;;;;73.28;49.15;;;18.20;99.90;;;;;;5051544;28;20033;-61
2022/06/24 04:09:27;;;;;;;80.45;52.38;;;18.30;99.90;;;;;;5051156;28;20040;-59
2022/06/24 04:11:52;;;;;;;73.70;51.58;;;18.40;99.90;;;;;;5051032;28;20112;-60
2022/06/24 04:17:03;;;;;;;76.85;52.70;;;18.40;99.90;;;;;;5050972;28;20404;-60
2022/06/24 04:19:29;;;;;;;77.45;52.65;;;18.30;99.90;;;;;;5051018;28;20017;-59
2022/06/24 04:21:55;;;;;;;78.57;55.38;;;18.30;99.90;;;;;;5051003;28;20021;-59
2022/06/24 04:24:21;;;;;;;78.38;55.08;;;18.40;99.90;;;;;;5050803;28;20420;-60
2022/06/24 04:26:46;;;;;;;79.53;55.72;;;18.40;99.90;;;;;;5050687;28;20100;-60
2022/06/24 04:29:12;;;;;;;83.75;55.97;;;18.40;99.90;;;;;;5049702;28;20067;-61
2022/06/24 04:31:38;;;;;;;76.15;55.67;;;18.50;99.90;;;;;;5050950;28;20032;-60
2022/06/24 04:34:03;;;;;;;74.63;53.30;;;18.60;99.90;;;;;;5054594;28;20485;-61
2022/06/24 04:36:29;;;;;;;73.97;52.83;;;18.50;99.90;;;;;;5054724;28;20061;-60
2022/06/24 04:38:54;;;;;;;77.15;53.15;;;18.50;99.90;;;;;;5054239;28;20469;-60
2022/06/24 04:41:20;;;;;;;74.43;54.85;;;18.40;99.90;;;;;;5054446;28;20021;-60
2022/06/24 04:43:46;;;;;;;77.10;55.38;;;18.40;99.90;;;;;;5052688;28;20495;-60
2022/06/24 04:46:11;;;;;;;74.93;52.50;;;18.40;99.90;;;;;;5054470;28;20103;-61
2022/06/24 04:48:37;;;;;;;70.28;50.45;;;18.40;99.90;;;;;;5054569;28;20112;-60
2022/06/24 04:51:03;;;;;;;57.83;43.22;;;18.40;99.90;;;;;;5054051;28;20056;-60
2022/06/24 04:53:30;;;;;;;56.80;41.33;;;18.30;99.90;;;;;;5053908;28;20047;-59
2022/06/24 04:55:57;;;;;;;64.93;46.97;;;18.30;99.90;;;;;;5054212;28;20059;-59
2022/06/24 04:58:22;;;;;;;55.60;42.15;;;18.50;99.90;;;;;;5053728;28;20028;-60
2022/06/24 05:00:48;;;;;;;57.22;42.45;;;18.50;99.90;;;;;;5054056;28;20717;-59
2022/06/24 05:03:14;;;;;;;57.10;41.08;;;18.50;99.90;;;;;;5053895;28;20032;-59
2022/06/24 05:05:39;;;;;;;53.35;38.30;;;18.60;99.90;;;;;;5053735;28;20495;-59
2022/06/24 05:08:05;;;;;;;49.35;37.10;;;18.60;99.90;;;;;;5053902;28;20488;-59
2022/06/24 05:10:31;;;;;;;48.13;34.90;;;18.60;99.90;;;;;;5054036;28;20033;-60
2022/06/24 05:12:56;;;;;;;40.85;32.15;;;18.70;99.90;;;;;;5054568;28;20112;-59
2022/06/24 05:15:22;;;;;;;37.70;28.60;;;18.70;99.90;;;;;;5054324;28;20535;-59
2022/06/24 05:17:47;;;;;;;35.75;28.63;;;18.60;99.90;;;;;;5053419;28;20039;-58
2022/06/24 05:20:13;;;;;;;40.10;28.58;;;18.60;99.90;;;;;;5053711;28;20029;-59
2022/06/24 05:22:39;;;;;;;34.05;25.33;;;18.70;99.90;;;;;;5053831;28;20037;-60
2022/06/24 05:25:07;;;;;;;33.72;26.15;;;18.60;99.90;;;;;;5054259;28;20024;-59
2022/06/24 05:27:33;;;;;;;31.60;25.80;;;18.60;99.90;;;;;;5053706;28;20059;-58
2022/06/24 05:29:58;;;;;;;32.83;25.08;;;18.60;99.90;;;;;;5053251;28;20053;-58
2022/06/24 05:32:24;;;;;;;30.50;25.20;;;18.60;99.90;;;;;;5053139;28;20021;-59
2022/06/24 05:34:49;;;;;;;32.85;24.17;;;18.70;99.90;;;;;;5053073;28;20033;-60
2022/06/24 05:37:15;;;;;;;30.65;24.00;;;18.70;99.90;;;;;;5053302;28;20111;-60
2022/06/24 05:39:41;;;;;;;31.33;22.90;;;18.80;99.90;;;;;;5052467;28;20036;-60
2022/06/24 05:42:06;;;;;;;30.02;24.23;;;18.80;99.90;;;;;;5052777;28;20100;-60
2022/06/24 05:44:32;;;;;;;31.13;24.13;;;18.80;99.90;;;;;;5052649;28;20074;-59
2022/06/24 05:46:58;;;;;;;27.90;22.88;;;18.90;99.90;;;;;;5053267;28;20063;-59
2022/06/24 05:49:23;;;;;;;28.60;22.42;;;18.70;99.90;;;;;;5053643;28;20036;-60
2022/06/24 05:51:49;;;;;;;26.10;22.13;;;18.70;99.90;;;;;;5053676;28;20094;-59
2022/06/24 05:56:59;;;;;;;23.15;19.30;;;18.70;99.90;;;;;;5054315;28;20032;-59
2022/06/24 05:59:25;;;;;;;24.35;18.95;;;18.70;99.90;;;;;;5071017;28;20020;-58
2022/06/24 06:01:50;;;;;;;23.88;18.02;;;18.70;99.90;;;;;;5063451;28;20038;-58
2022/06/24 06:04:16;;;;;;;22.27;17.73;;;18.70;99.90;;;;;;5059935;28;20030;-57
2022/06/24 06:06:42;;;;;;;21.45;17.55;;;18.70;99.90;;;;;;5062846;28;20058;-58
2022/06/24 06:09:08;;;;;;;22.73;17.08;;;18.80;99.90;;;;;;5059876;28;20477;-58
2022/06/24 06:11:33;;;;;;;21.40;17.25;;;18.80;99.90;;;;;;5064895;28;20159;-58
2022/06/24 06:13:59;;;;;;;18.55;14.90;;;18.90;99.90;;;;;;5056701;28;20066;-56
2022/06/24 06:16:26;;;;;;;22.08;16.15;;;19.00;99.90;;;;;;5052918;28;20017;-57
2022/06/24 06:18:52;;;;;;;18.90;15.75;;;19.10;99.90;;;;;;5053539;28;20068;-58
2022/06/24 06:21:18;;;;;;;19.42;15.57;;;19.10;99.90;;;;;;5055553;28;20124;-58
2022/06/24 06:23:44;;;;;;;22.08;16.58;;;19.20;99.90;;;;;;5061421;28;20028;-58
2022/06/24 06:26:11;;;;;;;21.58;16.20;;;19.30;99.90;;;;;;5052422;28;20523;-58
2022/06/24 06:28:38;;;;;;;19.63;15.70;;;19.40;99.90;;;;;;5053245;28;20071;-57
2022/06/24 06:31:04;;;;;;;21.67;15.25;;;19.50;99.90;;;;;;5048232;28;20028;-57
2022/06/24 06:33:33;;;;;;;18.52;14.05;;;19.50;99.90;;;;;;5049598;28;20550;-58
2022/06/24 06:36:04;;;;;;;15.27;11.88;;;19.70;99.90;;;;;;5052837;28;20473;-58
2022/06/24 06:38:29;;;;;;;13.82;9.95;;;19.90;99.90;;;;;;5057077;28;20056;-58
2022/06/24 06:40:55;;;;;;;13.20;11.18;;;20.20;99.90;;;;;;5046067;28;20029;-57
2022/06/24 06:43:20;;;;;;;13.38;10.40;;;20.90;99.90;;;;;;5046063;28;20032;-57
2022/06/24 06:45:46;;;;;;;11.27;8.27;;;21.20;99.90;;;;;;5045961;28;21423;-58
2022/06/24 06:48:12;;;;;;;8.52;7.43;;;21.20;99.90;;;;;;5054058;28;20031;-58
2022/06/24 06:50:37;;;;;;;9.23;6.35;;;21.40;99.90;;;;;;5045001;28;20503;-57
2022/06/24 06:53:03;;;;;;;7.35;5.97;;;21.80;99.90;;;;;;5049062;28;20317;-57
2022/06/24 06:55:29;;;;;;;7.35;4.85;;;22.40;99.90;;;;;;5046923;28;20105;-57
2022/06/24 06:57:55;;;;;;;9.45;5.07;;;22.70;99.90;;;;;;5047523;28;20029;-58
2022/06/24 07:00:21;;;;;;;4.93;4.45;;;22.80;99.90;;;;;;5046688;28;20146;-58
2022/06/24 07:02:46;;;;;;;6.97;4.75;;;22.50;99.90;;;;;;5051306;28;20064;-58
2022/06/24 07:05:12;;;;;;;9.10;5.00;;;21.90;99.90;;;;;;5049016;28;20035;-58
2022/06/24 07:07:37;;;;;;;6.80;4.97;;;21.40;99.90;;;;;;5053079;28;20041;-57
2022/06/24 07:10:03;;;;;;;6.72;5.57;;;21.00;99.90;;;;;;5052183;28;20056;-58
2022/06/24 07:12:29;;;;;;;8.45;5.65;;;20.90;99.90;;;;;;5044643;28;20107;-57
2022/06/24 07:14:55;;;;;;;6.45;5.80;;;20.60;99.90;;;;;;5051159;28;20097;-57
2022/06/24 07:17:21;;;;;;;9.90;5.60;;;20.60;99.90;;;;;;5051450;28;20139;-57
2022/06/24 07:19:47;;;;;;;7.78;6.25;;;20.40;99.90;;;;;;5058241;28;20473;-57
2022/06/24 07:22:14;;;;;;;7.75;5.93;;;20.40;99.90;;;;;;5057149;28;20032;-57
2022/06/24 07:24:40;;;;;;;6.45;5.32;;;20.30;99.90;;;;;;5052563;28;20202;-57
2022/06/24 07:27:08;;;;;;;6.18;5.50;;;20.20;99.90;;;;;;5052284;28;20811;-57
2022/06/24 07:29:35;;;;;;;7.95;6.32;;;20.20;99.90;;;;;;5053186;28;20028;-57
2022/06/24 07:32:07;;;;;;;10.35;6.15;;;20.10;99.90;;;;;;5051054;28;20029;-56
2022/06/24 07:34:33;;;;;;;9.38;5.95;;;20.10;99.90;;;;;;5049300;28;20094;-57
2022/06/24 07:37:00;;;;;;;7.82;6.05;;;19.90;99.90;;;;;;5050265;28;20111;-55
2022/06/24 07:39:27;;;;;;;7.60;5.00;;;19.80;99.90;;;;;;5045007;28;20028;-55
2022/06/24 07:41:53;;;;;;;3.50;2.33;;;19.70;99.90;;;;;;5048671;28;20024;-55
2022/06/24 07:44:19;;;;;;;2.85;1.45;;;19.50;99.90;;;;;;5045296;28;20028;-54
2022/06/24 07:46:46;;;;;;;1.27;0.95;;;18.90;99.90;;;;;;5047821;28;20028;-60
2022/06/24 07:49:12;;;;;;;2.60;0.60;;;18.10;99.90;;;;;;5051697;28;20028;-62
2022/06/24 07:51:38;;;;;;;1.30;0.50;;;17.70;99.90;;;;;;5048523;28;20082;-56
2022/06/24 07:54:07;;;;;;;2.00;0.50;;;17.30;99.90;;;;;;5053622;28;20117;-57
2022/06/24 07:59:31;;;;;;;2.75;0.75;;;16.90;99.90;;;;;;5050039;28;20035;-57
2022/06/24 08:01:58;;;;;;;3.95;0.73;;;16.90;99.90;;;;;;5047072;28;20184;-57
2022/06/24 08:04:25;;;;;;;1.33;0.50;;;16.80;99.90;;;;;;5048414;28;20020;-55
2022/06/24 08:06:52;;;;;;;2.83;0.57;;;16.70;99.90;;;;;;5045436;28;20257;-55
2022/06/24 08:09:22;;;;;;;0.75;0.63;;;16.60;99.90;;;;;;5051424;28;20117;-55
2022/06/24 08:11:48;;;;;;;1.98;0.77;;;16.50;99.90;;;;;;5049133;28;20031;-55
2022/06/24 08:14:15;;;;;;;4.75;1.25;;;16.60;99.90;;;;;;5047301;28;20021;-56
2022/06/24 08:16:44;;;;;;;4.43;1.15;;;16.60;99.90;;;;;;5047956;28;20029;-57
2022/06/24 08:19:10;;;;;;;3.88;1.20;;;16.70;99.90;;;;;;5053709;28;20049;-58
2022/06/24 08:21:36;;;;;;;3.17;1.00;;;16.60;99.90;;;;;;5055957;28;20235;-59
2022/06/24 08:24:02;;;;;;;2.97;1.40;;;16.80;99.90;;;;;;5055668;28;20032;-63
2022/06/24 08:26:28;;;;;;;4.13;1.58;;;16.80;99.90;;;;;;5052430;28;20029;-59
2022/06/24 08:28:54;;;;;;;3.88;1.70;;;16.80;99.90;;;;;;5042901;28;20509;-58
2022/06/24 08:31:20;;;;;;;2.90;2.15;;;16.80;99.90;;;;;;5042648;28;20032;-58
2022/06/24 08:33:45;;;;;;;3.05;2.03;;;17.00;99.90;;;;;;5052218;28;20033;-58
2022/06/24 08:36:11;;;;;;;3.10;1.85;;;17.10;99.90;;;;;;5051542;28;20055;-60
2022/06/24 08:38:37;;;;;;;5.43;2.58;;;17.10;99.90;;;;;;5051125;28;20214;-58
2022/06/24 08:41:03;;;;;;;3.65;2.15;;;17.10;99.90;;;;;;5054787;28;20546;-58
2022/06/24 08:43:34;;;;;;;3.70;2.17;;;17.20;99.90;;;;;;5059712;28;20029;-58
2022/06/24 08:46:00;;;;;;;3.88;2.55;;;17.20;99.90;;;;;;5055392;28;20055;-56
2022/06/24 08:48:28;;;;;;;3.40;2.45;;;17.30;99.90;;;;;;5055948;28;20036;-55
2022/06/24 08:50:53;;;;;;;3.15;2.80;;;17.40;99.90;;;;;;5049523;28;20044;-56
2022/06/24 08:53:22;;;;;;;4.43;3.28;;;17.60;99.90;;;;;;5061060;28;20400;-55
2022/06/24 08:55:50;;;;;;;3.95;2.95;;;17.70;99.90;;;;;;5054245;28;20135;-56
2022/06/24 08:58:17;;;;;;;3.85;2.42;;;17.80;99.90;;;;;;5056054;28;20064;-54
2022/06/24 09:00:43;;;;;;;5.35;2.60;;;17.70;99.90;;;;;;5056362;28;20119;-57
2022/06/24 09:03:10;;;;;;;5.93;2.83;;;17.50;99.90;;;;;;5048070;28;20905;-57
2022/06/24 09:05:36;;;;;;;4.32;3.75;;;17.50;99.90;;;;;;5059852;28;20034;-58
2022/06/24 09:08:05;;;;;;;6.10;3.58;;;17.60;99.90;;;;;;5061943;28;20036;-58
2022/06/24 09:10:31;;;;;;;5.28;3.00;;;17.80;99.90;;;;;;5060629;28;20037;-57
2022/06/24 09:12:57;;;;;;;4.28;2.97;;;17.90;99.90;;;;;;5058635;28;20765;-56
2022/06/24 09:15:23;;;;;;;6.00;2.72;;;18.00;99.90;;;;;;5049988;28;20036;-55
2022/06/24 09:17:49;;;;;;;4.90;3.03;;;18.20;99.90;;;;;;5062493;28;20039;-55
2022/06/24 09:20:16;;;;;;;2.83;2.58;;;18.50;99.90;;;;;;5058350;28;20048;-55
2022/06/24 09:22:42;;;;;;;3.85;2.88;;;19.00;99.90;;;;;;5060492;28;20476;-56
2022/06/24 09:25:08;;;;;;;3.25;2.00;;;19.30;99.90;;;;;;5058800;28;20039;-54
2022/06/24 09:27:35;;;;;;;2.78;2.03;;;20.10;99.90;;;;;;5060189;28;20040;-54
2022/06/24 09:30:01;;;;;;;2.90;1.85;;;20.30;99.90;;;;;;5055740;28;20099;-57
2022/06/24 09:32:27;;;;;;;4.22;2.38;;;20.80;99.90;;;;;;5058164;28;20040;-55
2022/06/24 09:35:05;;;;;;;4.20;2.17;;;20.90;99.90;;;;;;5061099;28;20565;-53
2022/06/24 09:37:35;;;;;;;2.45;2.20;;;21.00;99.90;;;;;;5052081;28;20040;-54
2022/06/24 09:40:22;;;;;;;1.90;1.80;;;21.50;99.90;;;;;;5059998;28;20112;-59
2022/06/24 09:43:03;;;;;;;2.42;2.20;;;21.70;99.90;;;;;;5058568;28;20028;-58
2022/06/24 09:45:51;;;;;;;3.83;2.25;;;21.90;99.90;;;;;;5061082;28;20020;-59
2022/06/24 09:48:27;;;;;;;2.15;1.80;;;22.70;99.90;;;;;;5054762;28;20099;-59
2022/06/24 09:51:02;;;;;;;2.30;1.83;;;23.10;99.90;;;;;;5049819;28;20395;-59
2022/06/24 09:53:29;;;;;;;3.33;1.92;;;22.70;99.90;;;;;;5050470;28;20047;-59
2022/06/24 09:55:55;;;;;;;3.35;2.03;;;23.00;99.90;;;;;;5048161;28;20024;-59
2022/06/24 09:58:22;;;;;;;3.00;2.10;;;22.80;99.90;;;;;;5051603;28;20781;-60
2022/06/24 10:00:49;;;;;;;5.68;2.20;;;22.30;99.90;;;;;;5052091;28;20060;-59
2022/06/24 10:03:16;;;;;;;2.65;2.45;;;21.70;99.90;;;;;;5035948;28;20473;-58
2022/06/24 10:05:46;;;;;;;2.70;2.47;;;21.20;99.90;;;;;;5049904;28;20024;-59
2022/06/24 10:08:15;;;;;;;3.13;2.88;;;21.10;99.90;;;;;;5052876;28;20025;-59
2022/06/24 10:10:51;;;;;;;3.80;3.50;;;20.70;99.90;;;;;;5047250;28;20094;-61
2022/06/24 10:13:24;;;;;;;3.97;2.80;;;21.00;99.90;;;;;;5053451;28;20029;-60
2022/06/24 10:15:51;;;;;;;2.85;2.63;;;21.20;99.90;;;;;;5050340;28;20495;-59
2022/06/24 10:18:19;;;;;;;5.18;3.25;;;21.40;99.90;;;;;;5050552;28;20037;-59
2022/06/24 10:20:46;;;;;;;3.42;3.03;;;21.80;99.90;;;;;;5046695;28;20432;-59
2022/06/24 10:23:44;;;;;;;3.95;3.60;;;22.60;99.90;;;;;;5045808;28;20569;-59
2022/06/24 10:26:31;;;;;;;6.85;3.22;;;23.40;99.90;;;;;;5052089;28;20028;-59
2022/06/24 10:28:59;;;;;;;7.90;3.85;;;24.30;99.90;;;;;;5057762;28;20037;-59
2022/06/24 10:31:44;;;;;;;8.75;3.70;;;24.50;99.90;;;;;;5053005;28;20024;-59
2022/06/24 10:34:22;;;;;;;4.80;4.00;;;25.30;99.90;;;;;;5055966;28;20028;-60
2022/06/24 10:36:52;;;;;;;5.00;4.60;;;25.20;99.90;;;;;;5050599;28;20033;-60
2022/06/24 10:39:23;;;;;;;9.15;5.82;;;24.90;99.90;;;;;;5048514;28;20388;-59
2022/06/24 10:42:14;;;;;;;7.68;5.47;;;25.40;99.90;;;;;;5051612;28;20024;-61
2022/06/24 10:44:57;;;;;;;7.05;6.40;;;25.40;99.90;;;;;;5052043;28;20031;-60
2022/06/24 10:47:39;;;;;;;11.15;6.10;;;26.00;99.90;;;;;;5054070;28;20056;-60
2022/06/24 10:50:18;;;;;;;6.47;5.88;;;27.20;99.90;;;;;;5050130;28;20087;-59
2022/06/24 10:52:51;;;;;;;7.38;6.28;;;28.00;99.90;;;;;;5049539;28;20086;-59
2022/06/24 10:55:16;;;;;;;6.43;5.70;;;27.60;99.90;;;;;;5048700;28;20086;-59
2022/06/24 10:57:56;;;;;;;7.88;5.80;;;28.10;99.90;;;;;;5046315;28;20127;-60
2022/06/24 11:00:48;;;;;;;8.48;5.32;;;29.30;99.90;;;;;;5048655;28;20141;-59
2022/06/24 11:03:36;;;;;;;6.00;5.40;;;28.20;99.90;;;;;;5049324;28;20032;-59
2022/06/24 11:06:02;;;;;;;5.40;4.90;;;28.10;99.90;;;;;;5051652;28;20032;-60
2022/06/24 11:08:28;;;;;;;5.65;5.10;;;28.20;99.90;;;;;;5044680;28;20063;-58
2022/06/24 11:10:54;;;;;;;5.55;5.05;;;27.60;99.90;;;;;;5048997;28;20108;-57
2022/06/24 11:13:23;;;;;;;4.55;4.20;;;27.70;99.90;;;;;;5047993;28;20032;-57
2022/06/24 11:15:55;;;;;;;4.25;3.83;;;27.60;99.90;;;;;;5047746;28;20036;-58
2022/06/24 11:18:24;;;;;;;2.90;2.63;;;27.50;99.90;;;;;;5051060;28;20451;-58
2022/06/24 11:20:59;;;;;;;4.10;3.50;;;27.20;99.90;;;;;;5051330;28;20620;-57
2022/06/24 11:23:28;;;;;;;2.13;1.60;;;28.10;99.90;;;;;;5052002;28;20029;-58
2022/06/24 11:25:56;;;;;;;1.88;1.10;;;27.50;99.90;;;;;;5047704;28;20035;-59
2022/06/24 11:28:26;;;;;;;2.13;1.70;;;27.30;99.90;;;;;;5048968;28;20481;-59
2022/06/24 11:30:53;;;;;;;1.77;1.42;;;27.30;99.90;;;;;;5049792;28;20108;-59
2022/06/24 11:33:20;;;;;;;2.45;1.40;;;26.50;99.90;;;;;;5036300;28;20047;-59
2022/06/24 11:35:47;;;;;;;1.90;1.70;;;25.60;99.90;;;;;;5047940;28;20431;-59
2022/06/24 11:38:13;;;;;;;2.90;1.92;;;25.60;99.90;;;;;;5040227;28;20136;-59
2022/06/24 11:40:40;;;;;;;2.15;1.70;;;25.40;99.90;;;;;;5043716;28;20036;-58
2022/06/24 11:43:09;;;;;;;1.80;1.70;;;25.20;99.90;;;;;;5049580;28;20367;-58
2022/06/24 11:45:43;;;;;;;1.23;1.13;;;25.50;99.90;;;;;;5050236;28;20029;-59
2022/06/24 11:48:11;;;;;;;1.67;1.27;;;26.70;99.90;;;;;;5041876;28;20063;-58
2022/06/24 11:50:38;;;;;;;2.35;1.02;;;27.30;99.90;;;;;;5047764;28;20028;-58
2022/06/24 11:53:05;;;;;;;2.08;1.30;;;27.60;99.90;;;;;;5050698;28;20032;-59
2022/06/24 11:55:34;;;;;;;1.17;1.05;;;28.10;99.90;;;;;;5049522;28;20082;-59
2022/06/24 11:58:02;;;;;;;3.65;1.30;;;27.70;99.90;;;;;;5052717;28;20036;-59
2022/06/24 12:00:32;;;;;;;3.22;1.48;;;27.80;99.90;;;;;;5054478;28;20020;-59
2022/06/24 12:02:58;;;;;;;1.20;1.10;;;28.90;99.90;;;;;;5056329;28;20042;-58
2022/06/24 12:05:30;;;;;;;2.65;1.40;;;28.20;99.90;;;;;;5057314;28;20635;-57
2022/06/24 12:07:57;;;;;;;1.30;1.17;;;27.90;99.90;;;;;;5059570;28;20503;-58
2022/06/24 12:10:23;;;;;;;1.25;1.02;;;27.90;99.90;;;;;;5058844;28;20056;-57
2022/06/24 12:12:59;;;;;;;2.67;1.10;;;26.70;99.90;;;;;;5044682;28;20123;-57
2022/06/24 12:15:35;;;;;;;2.72;1.30;;;25.70;99.90;;;;;;5052694;28;20060;-57
2022/06/24 12:18:02;;;;;;;1.52;1.15;;;25.40;99.90;;;;;;5052100;28;20043;-56
2022/06/24 12:20:29;;;;;;;1.23;1.10;;;25.30;99.90;;;;;;5053562;28;20059;-56
2022/06/24 12:23:17;;;;;;;1.85;1.15;;;25.40;99.90;;;;;;5049489;28;20065;-56
2022/06/24 12:25:48;;;;;;;1.20;1.10;;;25.70;99.90;;;;;;5053065;28;20032;-56
2022/06/24 12:28:26;;;;;;;1.90;1.10;;;25.80;99.90;;;;;;5053458;28;20099;-57
2022/06/24 12:30:55;;;;;;;1.63;1.10;;;26.10;99.90;;;;;;5048612;28;20021;-57
2022/06/24 12:33:20;;;;;;;1.88;1.38;;;27.10;99.90;;;;;;5053916;28;20036;-57
2022/06/24 12:36:27;;;;;;;1.33;1.00;;;27.60;99.90;;;;;;5055340;28;20028;-57
2022/06/24 12:38:53;;;;;;;1.25;1.13;;;27.70;99.90;;;;;;5051591;28;20040;-57
2022/06/24 12:41:21;;;;;;;3.47;1.50;;;27.60;99.90;;;;;;5048695;28;20059;-57
2022/06/24 12:43:50;;;;;;;2.33;1.30;;;27.10;99.90;;;;;;5050480;28;20060;-57
2022/06/24 12:46:16;;;;;;;2.80;1.15;;;26.40;99.90;;;;;;5047384;28;20116;-57
2022/06/24 12:51:26;;;;;;;1.80;1.00;;;25.40;99.90;;;;;;5056731;28;20583;-57
2022/06/24 12:53:56;;;;;;;1.65;1.05;;;25.00;99.90;;;;;;5052306;28;20037;-57